createdAt,value
2023-02-14T00:01:55.265Z,6.60
2023-02-14T00:04:24.812Z,7.40
2023-02-14T00:06:52.929Z,6.80
2023-02-14T00:09:21.180Z,6.60
2023-02-14T00:11:50.127Z,6.40
2023-02-14T00:14:37.026Z,7.70
2023-02-14T00:17:05.613Z,8.00
2023-02-14T00:19:36.228Z,6.80
2023-02-14T00:22:05.846Z,10.50
2023-02-14T00:24:33.964Z,6.10
2023-02-14T00:27:01.880Z,7.40
2023-02-14T00:29:33.005Z,7.60
2023-02-14T00:32:03.377Z,8.90
2023-02-14T00:34:33.556Z,8.50
2023-02-14T00:37:01.550Z,8.80
2023-02-14T00:39:29.678Z,8.30
2023-02-14T00:41:57.721Z,10.20
2023-02-14T00:44:25.838Z,9.10
2023-02-14T00:46:53.731Z,9.90
2023-02-14T00:49:24.654Z,10.90
2023-02-14T00:51:52.632Z,9.90
2023-02-14T00:54:20.636Z,8.20
2023-02-14T00:56:48.887Z,9.10
2023-02-14T00:59:17.163Z,10.30
2023-02-14T01:01:45.244Z,8.30
2023-02-14T01:04:13.618Z,10.00
2023-02-14T01:06:41.783Z,9.90
2023-02-14T01:09:09.867Z,9.00
2023-02-14T01:11:39.995Z,8.60
2023-02-14T01:14:07.932Z,7.90
2023-02-14T01:16:36.863Z,8.60
2023-02-14T01:19:05.083Z,9.10
2023-02-14T01:21:34.523Z,8.70
2023-02-14T01:24:07.280Z,7.10
2023-02-14T01:26:36.242Z,7.00
2023-02-14T01:29:05.181Z,8.90
2023-02-14T01:31:35.576Z,7.50
2023-02-14T01:34:05.094Z,8.70
2023-02-14T01:36:40.456Z,7.50
2023-02-14T01:39:14.293Z,7.80
2023-02-14T01:41:45.472Z,9.10
2023-02-14T01:44:16.949Z,8.90
2023-02-14T01:46:46.595Z,7.40
2023-02-14T01:49:27.239Z,7.70
2023-02-14T01:52:14.371Z,8.60
2023-02-14T01:54:54.283Z,7.20
2023-02-14T01:57:31.491Z,7.40
2023-02-14T02:00:21.469Z,7.60
2023-02-14T02:02:49.858Z,8.20
2023-02-14T02:05:23.921Z,7.10
2023-02-14T02:07:57.312Z,7.90
2023-02-14T02:10:25.535Z,6.20
2023-02-14T02:12:54.651Z,7.70
2023-02-14T02:15:28.650Z,7.10
2023-02-14T02:18:24.274Z,7.00
2023-02-14T02:21:19.884Z,6.80
2023-02-14T02:24:04.298Z,8.10
2023-02-14T02:26:46.284Z,6.80
2023-02-14T02:29:41.098Z,6.00
2023-02-14T02:32:31.944Z,6.20
2023-02-14T02:35:42.158Z,7.30
2023-02-14T02:38:50.830Z,6.70
2023-02-14T02:41:40.197Z,7.10
2023-02-14T02:44:20.369Z,6.90
2023-02-14T02:47:22.929Z,6.50
2023-02-14T02:50:32.580Z,5.80
2023-02-14T02:53:48.246Z,9.20
2023-02-14T02:56:41.442Z,6.60
2023-02-14T02:59:18.458Z,6.40
2023-02-14T03:02:23.072Z,6.20
2023-02-14T03:04:56.799Z,7.50
2023-02-14T03:07:37.715Z,6.90
2023-02-14T03:10:17.215Z,7.90
2023-02-14T03:13:43.644Z,6.90
2023-02-14T03:16:23.854Z,6.50
2023-02-14T03:20:00.790Z,6.40
2023-02-14T03:23:16.980Z,6.50
2023-02-14T03:26:12.651Z,7.00
2023-02-14T03:28:56.398Z,7.80
2023-02-14T03:31:34.122Z,6.50
2023-02-14T03:34:21.582Z,5.90
2023-02-14T03:37:13.059Z,7.00
2023-02-14T03:39:44.603Z,5.50
2023-02-14T03:42:21.431Z,5.70
2023-02-14T03:44:53.613Z,6.50
2023-02-14T03:47:28.552Z,6.30
2023-02-14T03:50:13.466Z,6.30
2023-02-14T03:52:44.998Z,7.10
2023-02-14T03:55:18.269Z,6.30
2023-02-14T03:58:20.867Z,5.40
2023-02-14T04:00:55.114Z,6.80
2023-02-14T04:03:26.324Z,6.40
2023-02-14T04:05:55.121Z,5.60
2023-02-14T04:08:27.440Z,6.70
2023-02-14T04:11:01.971Z,8.70
2023-02-14T04:13:30.033Z,6.90
2023-02-14T04:15:58.191Z,6.20
2023-02-14T04:18:45.218Z,6.70
2023-02-14T04:21:13.137Z,6.00
2023-02-14T04:23:41.193Z,7.10
2023-02-14T04:26:09.489Z,6.30
2023-02-14T04:28:37.561Z,6.90
2023-02-14T04:31:07.182Z,9.40
2023-02-14T04:33:35.377Z,6.60
2023-02-14T04:36:03.620Z,5.50
2023-02-14T04:38:33.220Z,6.40
2023-02-14T04:41:01.684Z,8.60
2023-02-14T04:43:30.003Z,7.60
2023-02-14T04:45:58.058Z,7.20
2023-02-14T04:48:26.042Z,7.50
2023-02-14T04:50:55.653Z,6.20
2023-02-14T04:53:24.014Z,6.10
2023-02-14T04:55:52.296Z,5.80
2023-02-14T04:58:20.233Z,7.70
2023-02-14T05:00:48.400Z,5.90
2023-02-14T05:03:16.714Z,5.80
2023-02-14T05:05:44.690Z,6.50
2023-02-14T05:08:14.719Z,7.20
2023-02-14T05:10:42.870Z,6.90
2023-02-14T05:13:10.730Z,5.90
2023-02-14T05:15:39.332Z,5.20
2023-02-14T05:18:07.290Z,6.20
2023-02-14T05:20:35.205Z,7.10
2023-02-14T05:23:05.084Z,7.30
2023-02-14T05:25:33.154Z,8.30
2023-02-14T05:28:01.594Z,6.10
2023-02-14T05:30:30.523Z,8.30
2023-02-14T05:32:58.690Z,5.00
2023-02-14T05:35:27.980Z,6.90
2023-02-14T05:37:56.193Z,6.20
2023-02-14T05:42:56.062Z,7.10
2023-02-14T05:45:24.099Z,6.70
2023-02-14T05:47:52.453Z,6.00
2023-02-14T05:50:20.850Z,6.20
2023-02-14T05:52:48.900Z,6.40
2023-02-14T05:55:17.074Z,5.90
2023-02-14T05:57:45.025Z,5.70
2023-02-14T06:00:14.227Z,6.40
2023-02-14T06:02:42.620Z,5.50
2023-02-14T06:05:10.872Z,7.60
2023-02-14T06:07:38.937Z,6.30
2023-02-14T06:10:10.022Z,7.20
2023-02-14T06:12:38.073Z,6.50
2023-02-14T06:15:06.850Z,6.20
2023-02-14T06:17:34.975Z,6.70
2023-02-14T06:20:03.020Z,6.60
2023-02-14T06:22:31.173Z,11.80
2023-02-14T06:24:59.362Z,7.30
2023-02-14T06:27:30.597Z,8.60
2023-02-14T06:29:58.781Z,7.20
2023-02-14T06:32:27.063Z,5.90
2023-02-14T06:34:55.031Z,6.60
2023-02-14T06:37:23.113Z,9.60
2023-02-14T06:39:51.179Z,8.60
2023-02-14T06:42:19.236Z,6.60
2023-02-14T06:44:47.327Z,7.90
2023-02-14T06:47:17.128Z,6.70
2023-02-14T06:49:45.309Z,7.70
2023-02-14T06:52:13.189Z,7.60
2023-02-14T06:54:41.375Z,7.60
2023-02-14T06:57:09.547Z,8.70
2023-02-14T06:59:37.702Z,7.00
2023-02-14T07:02:06.612Z,5.90
2023-02-14T07:04:34.770Z,7.00
2023-02-14T07:07:03.334Z,7.80
2023-02-14T07:09:31.422Z,6.70
2023-02-14T07:11:59.596Z,6.80
2023-02-14T07:14:27.508Z,7.10
2023-02-14T07:16:56.062Z,6.70
2023-02-14T07:19:24.444Z,6.40
2023-02-14T07:21:52.710Z,6.80
2023-02-14T07:24:20.980Z,7.30
2023-02-14T07:26:49.075Z,7.30
2023-02-14T07:29:17.184Z,6.90
2023-02-14T07:31:45.433Z,7.10
2023-02-14T07:34:13.652Z,6.90
2023-02-14T07:36:41.945Z,6.70
2023-02-14T07:39:10.335Z,6.60
2023-02-14T07:41:38.613Z,7.10
2023-02-14T07:44:07.924Z,7.60
2023-02-14T07:46:36.041Z,6.80
2023-02-14T07:49:04.359Z,8.10
2023-02-14T07:51:32.267Z,7.60
2023-02-14T07:54:00.416Z,8.80
2023-02-14T07:56:29.086Z,7.80
2023-02-14T07:58:57.038Z,8.10
2023-02-14T08:01:25.348Z,7.30
2023-02-14T08:03:54.525Z,8.10
2023-02-14T08:06:22.600Z,6.80
2023-02-14T08:08:50.751Z,7.00
2023-02-14T08:11:37.996Z,8.20
2023-02-14T08:14:06.473Z,8.10
2023-02-14T08:16:34.817Z,7.80
2023-02-14T08:19:03.245Z,7.40
2023-02-14T08:21:31.608Z,7.70
2023-02-14T08:23:59.606Z,7.70
2023-02-14T08:26:28.968Z,7.40
2023-02-14T08:28:57.057Z,8.00
2023-02-14T08:31:36.474Z,8.40
2023-02-14T08:34:06.013Z,9.10
2023-02-14T08:36:35.007Z,8.00
2023-02-14T08:39:05.883Z,7.80
2023-02-14T08:41:35.048Z,7.50
2023-02-14T08:44:03.503Z,8.80
2023-02-14T08:46:31.439Z,8.00
2023-02-14T08:48:59.818Z,8.50
2023-02-14T08:51:28.086Z,8.20
2023-02-14T08:53:56.522Z,8.30
2023-02-14T08:56:25.047Z,8.00
2023-02-14T08:58:54.867Z,8.10
2023-02-14T09:01:23.178Z,8.10
2023-02-14T09:03:51.322Z,8.30
2023-02-14T09:06:19.557Z,8.40
2023-02-14T09:08:47.422Z,8.50
2023-02-14T09:11:21.020Z,8.10
2023-02-14T09:13:53.210Z,7.00
2023-02-14T09:16:23.838Z,8.60
2023-02-14T09:18:54.760Z,8.10
2023-02-14T09:21:27.264Z,7.90
2023-02-14T09:23:55.700Z,9.70
2023-02-14T09:26:23.732Z,8.50
2023-02-14T09:28:51.712Z,8.70
2023-02-14T09:31:25.142Z,8.20
2023-02-14T09:33:53.315Z,8.70
2023-02-14T09:36:21.406Z,7.50
2023-02-14T09:38:49.531Z,7.50
2023-02-14T09:41:29.682Z,7.10
2023-02-14T09:44:22.357Z,9.20
2023-02-14T09:46:57.106Z,8.60
2023-02-14T09:49:39.853Z,7.90
2023-02-14T09:52:16.718Z,8.60
2023-02-14T09:54:54.897Z,7.30
2023-02-14T09:58:03.987Z,8.30
2023-02-14T10:00:46.880Z,7.60
2023-02-14T10:03:44.199Z,8.30
2023-02-14T10:06:40.204Z,7.00
2023-02-14T10:09:13.638Z,6.90
2023-02-14T10:11:47.644Z,7.60
2023-02-14T10:14:29.656Z,7.40
2023-02-14T10:17:13.986Z,6.70
2023-02-14T10:19:52.504Z,8.60
2023-02-14T10:22:34.302Z,7.00
2023-02-14T10:25:20.828Z,8.30
2023-02-14T10:27:49.932Z,8.70
2023-02-14T10:30:22.216Z,7.40
2023-02-14T10:33:06.536Z,7.40
2023-02-14T10:35:55.278Z,7.30
2023-02-14T10:38:48.647Z,5.90
2023-02-14T10:41:49.295Z,8.70
2023-02-14T10:44:52.690Z,7.80
2023-02-14T10:47:38.260Z,7.60
2023-02-14T10:50:46.994Z,8.80
2023-02-14T10:53:48.337Z,7.20
2023-02-14T10:56:44.878Z,7.40
2023-02-14T10:59:32.910Z,7.80
2023-02-14T11:02:02.587Z,7.30
2023-02-14T11:04:32.643Z,7.40
2023-02-14T11:07:00.708Z,7.60
2023-02-14T11:09:28.588Z,7.90
2023-02-14T11:12:00.195Z,7.20
2023-02-14T11:14:36.586Z,7.60
2023-02-14T11:17:31.314Z,7.30
2023-02-14T11:20:07.293Z,7.90
2023-02-14T11:22:36.091Z,8.90
2023-02-14T11:25:30.225Z,6.70
2023-02-14T11:28:07.585Z,8.30
2023-02-14T11:30:41.378Z,7.20
2023-02-14T11:33:29.808Z,6.90
2023-02-14T11:35:59.788Z,7.30
2023-02-14T11:38:36.849Z,7.50
2023-02-14T11:41:10.378Z,6.80
2023-02-14T11:43:42.736Z,8.80
2023-02-14T11:46:28.094Z,7.30
2023-02-14T11:49:04.958Z,6.60
2023-02-14T11:51:42.963Z,7.40
2023-02-14T11:54:25.632Z,7.10
2023-02-14T11:57:08.807Z,7.00
2023-02-14T11:59:53.290Z,6.60
2023-02-14T12:02:44.873Z,7.60
2023-02-14T12:05:31.953Z,7.60
2023-02-14T12:08:05.260Z,6.30
2023-02-14T12:10:36.804Z,6.70
2023-02-14T12:13:07.535Z,6.80
2023-02-14T12:15:44.634Z,7.20
2023-02-14T12:18:37.137Z,6.30
2023-02-14T12:21:32.827Z,6.60
2023-02-14T12:24:28.029Z,5.80
2023-02-14T12:27:34.799Z,6.40
2023-02-14T12:30:15.644Z,6.90
2023-02-14T12:32:56.537Z,6.10
2023-02-14T12:36:10.661Z,7.10
2023-02-14T12:38:59.734Z,6.50
2023-02-14T12:41:36.930Z,6.20
2023-02-14T12:44:42.249Z,6.30
2023-02-14T12:47:41.918Z,7.20
2023-02-14T12:50:18.741Z,6.40
2023-02-14T12:53:42.435Z,6.20
2023-02-14T12:56:39.175Z,6.70
2023-02-14T12:59:38.808Z,6.90
2023-02-14T13:02:52.035Z,6.70
2023-02-14T13:05:58.186Z,6.30
2023-02-14T13:09:13.474Z,6.80
2023-02-14T13:12:04.463Z,6.70
2023-02-14T13:14:46.451Z,5.50
2023-02-14T13:17:42.238Z,7.10
2023-02-14T13:20:39.057Z,6.10
2023-02-14T13:23:26.145Z,7.80
2023-02-14T13:26:18.180Z,6.80
2023-02-14T13:29:03.376Z,6.90
2023-02-14T13:31:32.896Z,6.50
2023-02-14T13:34:13.829Z,8.60
2023-02-14T13:36:44.558Z,7.00
2023-02-14T13:39:38.540Z,7.20
2023-02-14T13:42:07.765Z,6.10
2023-02-14T13:44:48.096Z,7.70
2023-02-14T13:47:27.215Z,6.20
2023-02-14T13:50:05.438Z,7.70
2023-02-14T13:52:47.573Z,7.00
2023-02-14T13:55:35.944Z,7.30
2023-02-14T13:58:22.109Z,6.70
2023-02-14T14:00:53.927Z,6.80
2023-02-14T14:03:30.636Z,6.90
2023-02-14T14:06:09.084Z,7.00
2023-02-14T14:08:38.791Z,7.90
2023-02-14T14:11:26.832Z,5.90
2023-02-14T14:13:56.538Z,6.10
2023-02-14T14:16:27.509Z,6.30
2023-02-14T14:19:31.140Z,6.30
2023-02-14T14:22:04.907Z,6.80
2023-02-14T14:24:41.826Z,7.40
2023-02-14T14:27:19.860Z,6.30
2023-02-14T14:30:07.558Z,7.70
2023-02-14T14:32:38.576Z,6.40
2023-02-14T14:35:18.142Z,6.10
2023-02-14T14:37:55.438Z,6.50
2023-02-14T14:40:31.663Z,7.10
2023-02-14T14:43:26.013Z,6.10
2023-02-14T14:45:56.303Z,7.10
2023-02-14T14:48:36.441Z,6.80
2023-02-14T14:51:08.359Z,7.40
2023-02-14T14:53:59.804Z,6.50
2023-02-14T14:56:31.748Z,6.50
2023-02-14T14:59:30.098Z,5.10
2023-02-14T15:01:59.393Z,8.30
2023-02-14T15:04:35.777Z,6.60
2023-02-14T15:07:41.011Z,6.00
2023-02-14T15:10:28.841Z,5.60
2023-02-14T15:13:18.420Z,6.80
2023-02-14T15:15:51.732Z,8.30
2023-02-14T15:18:21.735Z,7.80
2023-02-14T15:20:52.132Z,7.10
2023-02-14T15:23:25.015Z,6.80
2023-02-14T15:25:55.674Z,5.10
2023-02-14T15:28:34.933Z,6.80
2023-02-14T15:31:08.020Z,6.20
2023-02-14T15:33:37.403Z,7.90
2023-02-14T15:36:17.449Z,6.30
2023-02-14T15:38:46.742Z,6.10
2023-02-14T15:41:17.191Z,6.60
2023-02-14T15:43:53.532Z,8.10
2023-02-14T15:46:26.477Z,6.10
2023-02-14T15:49:01.350Z,6.50
2023-02-14T15:51:33.712Z,6.00
2023-02-14T15:54:07.701Z,6.50
2023-02-14T15:56:45.203Z,8.80
2023-02-14T15:59:20.743Z,6.70
2023-02-14T16:02:00.790Z,7.20
2023-02-14T16:04:33.677Z,5.40
2023-02-14T16:07:29.833Z,5.50
2023-02-14T16:10:26.042Z,5.70
2023-02-14T16:13:20.420Z,5.80
2023-02-14T16:15:59.762Z,6.80
2023-02-14T16:18:44.040Z,7.50
2023-02-14T16:21:24.892Z,8.50
2023-02-14T16:24:10.981Z,6.60
2023-02-14T16:26:42.710Z,6.80
2023-02-14T16:29:17.117Z,7.10
2023-02-14T16:34:44.504Z,7.50
2023-02-14T16:37:23.137Z,7.70
2023-02-14T16:39:59.438Z,6.40
2023-02-14T16:42:28.078Z,6.20
2023-02-14T16:44:56.118Z,7.70
2023-02-14T16:47:27.969Z,7.10
2023-02-14T16:49:55.950Z,7.00
2023-02-14T16:52:28.463Z,6.30
2023-02-14T16:54:57.897Z,7.80
2023-02-14T16:57:33.278Z,6.60
2023-02-14T17:00:01.254Z,7.00
2023-02-14T17:02:29.392Z,6.50
2023-02-14T17:04:57.690Z,6.90
2023-02-14T17:07:29.589Z,7.50
2023-02-14T17:10:15.541Z,6.60
2023-02-14T17:12:48.427Z,7.30
2023-02-14T17:15:21.363Z,6.90
2023-02-14T17:17:52.611Z,7.90
2023-02-14T17:20:22.031Z,7.00
2023-02-14T17:22:51.056Z,7.40
2023-02-14T17:25:19.232Z,7.00
2023-02-14T17:27:47.818Z,7.40
2023-02-14T17:30:16.478Z,7.90
2023-02-14T17:32:44.890Z,6.90
2023-02-14T17:35:14.525Z,7.00
2023-02-14T17:37:43.272Z,7.10
2023-02-14T17:40:14.581Z,8.30
2023-02-14T17:42:43.066Z,7.50
2023-02-14T17:45:12.083Z,8.60
2023-02-14T17:47:41.121Z,7.60
2023-02-14T17:50:10.519Z,7.90
2023-02-14T17:52:38.662Z,8.10
2023-02-14T17:55:09.284Z,6.90
2023-02-14T17:57:40.981Z,9.10
2023-02-14T18:00:11.958Z,7.60
2023-02-14T18:02:43.510Z,7.60
2023-02-14T18:05:12.439Z,8.60
2023-02-14T18:07:40.829Z,7.50
2023-02-14T18:10:09.995Z,6.90
2023-02-14T18:12:41.243Z,8.60
2023-02-14T18:15:10.138Z,8.00
2023-02-14T18:17:38.350Z,7.60
2023-02-14T18:20:07.835Z,8.80
2023-02-14T18:22:36.939Z,7.00
2023-02-14T18:25:05.831Z,8.00
2023-02-14T18:27:33.791Z,7.10
2023-02-14T18:30:01.993Z,8.80
2023-02-14T18:32:30.144Z,7.30
2023-02-14T18:34:58.200Z,8.20
2023-02-14T18:37:26.493Z,7.40
2023-02-14T18:39:54.559Z,8.20
2023-02-14T18:42:22.513Z,6.40
2023-02-14T18:44:50.501Z,8.30
2023-02-14T18:47:18.487Z,9.70
2023-02-14T18:49:46.761Z,8.10
2023-02-14T18:52:14.818Z,7.60
2023-02-14T18:54:42.890Z,8.70
2023-02-14T18:57:11.462Z,8.90
2023-02-14T18:59:39.447Z,8.30
2023-02-14T19:02:08.708Z,7.40
2023-02-14T19:04:37.138Z,9.00
2023-02-14T19:07:05.199Z,7.70
2023-02-14T19:09:39.162Z,8.60
2023-02-14T19:12:07.914Z,9.10
2023-02-14T19:14:37.194Z,9.30
2023-02-14T19:17:05.782Z,9.10
2023-02-14T19:19:33.761Z,9.60
2023-02-14T19:22:02.232Z,9.30
2023-02-14T19:24:30.204Z,10.80
2023-02-14T19:26:58.690Z,10.40
2023-02-14T19:29:27.278Z,8.60
2023-02-14T19:31:56.788Z,10.20
2023-02-14T19:34:31.860Z,9.40
2023-02-14T19:37:02.391Z,7.70
2023-02-14T19:39:31.139Z,9.40
2023-02-14T19:42:00.658Z,8.10
2023-02-14T19:44:31.389Z,8.80
2023-02-14T19:47:02.726Z,8.40
2023-02-14T19:49:32.429Z,9.90
2023-02-14T19:52:00.606Z,9.00
2023-02-14T19:54:30.212Z,9.70
2023-02-14T19:56:58.486Z,8.70
2023-02-14T19:59:28.016Z,8.40
2023-02-14T20:01:57.642Z,9.00
2023-02-14T20:04:29.731Z,7.90
2023-02-14T20:06:58.885Z,12.40
2023-02-14T20:09:27.038Z,8.20
2023-02-14T20:11:58.122Z,15.90
2023-02-14T20:14:47.138Z,21.60
2023-02-14T20:17:19.549Z,26.30
2023-02-14T20:19:49.108Z,26.40
2023-02-14T20:22:17.198Z,28.40
2023-02-14T20:24:46.475Z,29.00
2023-02-14T20:27:14.862Z,33.40
2023-02-14T20:29:46.011Z,31.10
2023-02-14T20:32:16.408Z,29.60
2023-02-14T20:34:45.763Z,27.00
2023-02-14T20:37:14.075Z,24.80
2023-02-14T20:39:43.733Z,30.50
2023-02-14T20:42:11.904Z,29.50
2023-02-14T20:44:41.720Z,30.00
2023-02-14T20:47:11.294Z,31.30
2023-02-14T20:49:44.618Z,31.10
2023-02-14T20:52:12.958Z,31.90
2023-02-14T20:54:41.046Z,28.90
2023-02-14T20:57:09.017Z,28.10
2023-02-14T20:59:37.884Z,28.10
2023-02-14T21:02:07.594Z,27.90
2023-02-14T21:04:35.542Z,26.50
2023-02-14T21:07:08.852Z,24.90
2023-02-14T21:09:38.513Z,27.60
2023-02-14T21:12:07.619Z,26.50
2023-02-14T21:14:36.304Z,25.70
2023-02-14T21:17:05.017Z,24.20
2023-02-14T21:19:33.784Z,24.30
2023-02-14T21:22:02.362Z,22.60
2023-02-14T21:24:33.929Z,22.40
2023-02-14T21:27:03.111Z,20.90
2023-02-14T21:29:31.798Z,19.60
2023-02-14T21:32:03.409Z,20.00
2023-02-14T21:34:33.068Z,19.60
2023-02-14T21:37:02.775Z,16.30
2023-02-14T21:39:31.267Z,18.70
2023-02-14T21:42:00.350Z,19.50
2023-02-14T21:44:46.916Z,18.60
2023-02-14T21:47:15.129Z,20.00
2023-02-14T21:50:02.151Z,19.50
2023-02-14T21:52:31.150Z,18.80
2023-02-14T21:54:59.537Z,17.30
2023-02-14T21:57:31.125Z,21.50
2023-02-14T21:59:59.446Z,18.20
2023-02-14T22:02:27.570Z,16.60
2023-02-14T22:04:55.619Z,16.40
2023-02-14T22:07:42.449Z,15.90
2023-02-14T22:10:11.002Z,15.50
2023-02-14T22:12:39.171Z,17.20
2023-02-14T22:15:08.191Z,20.20
2023-02-14T22:17:36.200Z,14.10
2023-02-14T22:20:06.516Z,15.90
2023-02-14T22:22:35.132Z,14.90
2023-02-14T22:25:03.512Z,16.40
2023-02-14T22:27:31.503Z,15.00
2023-02-14T22:29:59.990Z,17.00
2023-02-14T22:32:29.266Z,14.50
2023-02-14T22:34:57.331Z,17.80
2023-02-14T22:37:25.939Z,14.10
2023-02-14T22:39:53.885Z,15.40
2023-02-14T22:42:22.219Z,13.40
2023-02-14T22:44:51.157Z,15.40
2023-02-14T22:47:19.639Z,14.70
2023-02-14T22:49:47.855Z,12.90
2023-02-14T22:52:17.120Z,14.20
2023-02-14T22:54:46.737Z,13.40
2023-02-14T22:57:15.008Z,13.60
2023-02-14T22:59:43.172Z,15.00
2023-02-14T23:02:11.254Z,12.60
2023-02-14T23:04:39.244Z,13.60
2023-02-14T23:07:12.830Z,13.60
2023-02-14T23:09:41.109Z,12.30
2023-02-14T23:12:29.748Z,13.70
2023-02-14T23:15:16.571Z,11.40
2023-02-14T23:18:04.082Z,11.40
2023-02-14T23:20:50.946Z,13.30
2023-02-14T23:23:19.280Z,12.00
2023-02-14T23:25:47.655Z,11.90
2023-02-14T23:28:15.661Z,11.80
2023-02-14T23:30:43.910Z,11.30
2023-02-14T23:33:11.970Z,11.30
2023-02-14T23:35:40.046Z,10.50
2023-02-14T23:38:08.013Z,12.20
2023-02-14T23:40:55.962Z,12.00
2023-02-14T23:43:24.127Z,10.90
2023-02-14T23:45:52.600Z,10.40
2023-02-14T23:48:20.562Z,10.80
2023-02-14T23:50:48.570Z,10.30
2023-02-14T23:53:16.519Z,11.80
2023-02-14T23:55:44.489Z,10.70
2023-02-14T23:58:12.566Z,10.80
